sensor_id;sensor_type;location;lat;lon;timestamp;pressure;altitude;pressure_sealevel;temperature;humidity
45129;BME280;35512;56.312;101.728;2022-09-09T00:00:15;96392.03;;;9.19;57.42
45129;BME280;35512;56.312;101.728;2022-09-09T00:03:14;96398.41;;;9.30;57.16
45129;BME280;35512;56.312;101.728;2022-09-09T00:08:49;96405.66;;;9.46;57.20
45129;BME280;35512;56.312;101.728;2022-09-09T00:11:26;96409.28;;;9.54;56.85
45129;BME280;35512;56.312;101.728;2022-09-09T00:14:00;96408.63;;;9.60;56.90
45129;BME280;35512;56.312;101.728;2022-09-09T00:16:36;96401.09;;;9.70;56.82
45129;BME280;35512;56.312;101.728;2022-09-09T00:19:52;96415.16;;;9.79;56.49
45129;BME280;35512;56.312;101.728;2022-09-09T00:22:20;96411.78;;;9.86;56.38
45129;BME280;35512;56.312;101.728;2022-09-09T00:24:53;96411.97;;;9.96;56.37
45129;BME280;35512;56.312;101.728;2022-09-09T00:27:29;96424.97;;;10.10;56.26
45129;BME280;35512;56.312;101.728;2022-09-09T00:30:14;96423.34;;;10.29;56.00
45129;BME280;35512;56.312;101.728;2022-09-09T00:32:48;96430.06;;;10.39;55.82
45129;BME280;35512;56.312;101.728;2022-09-09T00:35:27;96429.47;;;10.49;55.65
45129;BME280;35512;56.312;101.728;2022-09-09T00:38:01;96427.19;;;10.51;55.47
45129;BME280;35512;56.312;101.728;2022-09-09T00:40:35;96426.66;;;10.65;55.76
45129;BME280;35512;56.312;101.728;2022-09-09T00:46:00;96423.19;;;10.91;55.19
45129;BME280;35512;56.312;101.728;2022-09-09T00:54:28;96441.00;;;10.46;55.40
45129;BME280;35512;56.312;101.728;2022-09-09T00:57:29;96433.50;;;10.36;55.45
45129;BME280;35512;56.312;101.728;2022-09-09T01:03:15;96439.34;;;10.38;55.63
45129;BME280;35512;56.312;101.728;2022-09-09T01:12:02;96446.94;;;10.55;55.25
45129;BME280;35512;56.312;101.728;2022-09-09T01:19:45;96453.13;;;10.56;55.29
45129;BME280;35512;56.312;101.728;2022-09-09T01:22:41;96455.53;;;10.61;55.29
45129;BME280;35512;56.312;101.728;2022-09-09T01:28:26;96459.91;;;10.69;55.43
45129;BME280;35512;56.312;101.728;2022-09-09T01:31:04;96458.81;;;10.74;55.34
45129;BME280;35512;56.312;101.728;2022-09-09T01:33:41;96466.13;;;10.73;55.24
45129;BME280;35512;56.312;101.728;2022-09-09T01:36:17;96476.03;;;10.65;55.29
45129;BME280;35512;56.312;101.728;2022-09-09T01:38:51;96475.75;;;10.71;55.21
45129;BME280;35512;56.312;101.728;2022-09-09T01:41:21;96481.59;;;10.76;55.47
45129;BME280;35512;56.312;101.728;2022-09-09T01:43:58;96487.13;;;10.83;55.36
45129;BME280;35512;56.312;101.728;2022-09-09T01:46:29;96488.22;;;10.79;55.25
45129;BME280;35512;56.312;101.728;2022-09-09T01:49:02;96483.09;;;10.74;55.14
45129;BME280;35512;56.312;101.728;2022-09-09T01:51:32;96486.66;;;10.78;55.56
45129;BME280;35512;56.312;101.728;2022-09-09T01:54:06;96487.53;;;10.86;55.70
45129;BME280;35512;56.312;101.728;2022-09-09T01:56:57;96487.75;;;11.00;55.48
45129;BME280;35512;56.312;101.728;2022-09-09T02:02:27;96489.41;;;11.35;54.76
45129;BME280;35512;56.312;101.728;2022-09-09T02:05:23;96489.25;;;11.51;54.59
45129;BME280;35512;56.312;101.728;2022-09-09T02:08:09;96485.19;;;11.64;54.59
45129;BME280;35512;56.312;101.728;2022-09-09T02:13:32;96480.38;;;11.84;54.45
45129;BME280;35512;56.312;101.728;2022-09-09T02:16:18;96476.72;;;12.00;54.05
45129;BME280;35512;56.312;101.728;2022-09-09T02:19:09;96481.94;;;12.20;54.24
45129;BME280;35512;56.312;101.728;2022-09-09T02:22:02;96480.72;;;13.03;53.55
45129;BME280;35512;56.312;101.728;2022-09-09T02:24:37;96484.25;;;13.74;52.29
45129;BME280;35512;56.312;101.728;2022-09-09T02:27:22;96482.84;;;14.09;51.78
45129;BME280;35512;56.312;101.728;2022-09-09T02:29:53;96489.13;;;14.49;51.12
45129;BME280;35512;56.312;101.728;2022-09-09T02:32:38;96482.16;;;15.13;50.49
45129;BME280;35512;56.312;101.728;2022-09-09T02:35:14;96467.66;;;15.66;49.92
45129;BME280;35512;56.312;101.728;2022-09-09T02:37:45;96473.03;;;15.92;49.39
45129;BME280;35512;56.312;101.728;2022-09-09T02:40:16;96474.19;;;15.94;49.00
45129;BME280;35512;56.312;101.728;2022-09-09T02:42:55;96469.78;;;16.18;48.31
45129;BME280;35512;56.312;101.728;2022-09-09T02:45:31;96461.69;;;16.64;48.19
45129;BME280;35512;56.312;101.728;2022-09-09T02:51:15;96473.94;;;19.14;45.13
45129;BME280;35512;56.312;101.728;2022-09-09T02:53:50;96472.38;;;19.76;43.40
45129;BME280;35512;56.312;101.728;2022-09-09T02:56:28;96468.16;;;20.12;42.65
45129;BME280;35512;56.312;101.728;2022-09-09T02:58:58;96468.56;;;20.47;41.63
45129;BME280;35512;56.312;101.728;2022-09-09T03:01:27;96469.34;;;20.48;40.78
45129;BME280;35512;56.312;101.728;2022-09-09T03:03:57;96462.59;;;20.16;40.73
45129;BME280;35512;56.312;101.728;2022-09-09T03:06:25;96468.94;;;20.49;41.12
45129;BME280;35512;56.312;101.728;2022-09-09T03:09:04;96458.31;;;20.84;39.58
45129;BME280;35512;56.312;101.728;2022-09-09T03:11:33;96473.78;;;20.78;39.10
45129;BME280;35512;56.312;101.728;2022-09-09T03:14:02;96480.69;;;20.66;38.88
45129;BME280;35512;56.312;101.728;2022-09-09T03:16:32;96479.41;;;20.87;38.34
45129;BME280;35512;56.312;101.728;2022-09-09T03:19:02;96471.59;;;20.86;38.98
45129;BME280;35512;56.312;101.728;2022-09-09T03:21:31;96475.31;;;21.12;38.73
45129;BME280;35512;56.312;101.728;2022-09-09T03:24:00;96476.56;;;21.70;37.89
45129;BME280;35512;56.312;101.728;2022-09-09T03:26:32;96480.84;;;22.26;37.19
45129;BME280;35512;56.312;101.728;2022-09-09T03:29:01;96479.47;;;22.73;35.12
45129;BME280;35512;56.312;101.728;2022-09-09T03:31:30;96484.16;;;22.98;35.70
45129;BME280;35512;56.312;101.728;2022-09-09T03:33:59;96484.25;;;23.20;35.71
45129;BME280;35512;56.312;101.728;2022-09-09T03:36:31;96480.91;;;23.60;34.91
45129;BME280;35512;56.312;101.728;2022-09-09T03:39:01;96463.53;;;23.51;34.24
45129;BME280;35512;56.312;101.728;2022-09-09T03:41:31;96471.13;;;23.11;34.45
45129;BME280;35512;56.312;101.728;2022-09-09T03:44:03;96482.63;;;22.71;35.09
45129;BME280;35512;56.312;101.728;2022-09-09T03:46:37;96471.53;;;22.49;34.59
45129;BME280;35512;56.312;101.728;2022-09-09T03:49:06;96466.53;;;22.05;34.37
45129;BME280;35512;56.312;101.728;2022-09-09T03:51:35;96474.69;;;21.67;34.34
45129;BME280;35512;56.312;101.728;2022-09-09T03:54:06;96461.47;;;21.16;34.55
45129;BME280;35512;56.312;101.728;2022-09-09T03:56:37;96471.81;;;20.58;34.85
45129;BME280;35512;56.312;101.728;2022-09-09T03:59:07;96464.44;;;20.02;35.05
45129;BME280;35512;56.312;101.728;2022-09-09T04:01:37;96471.81;;;19.65;35.27
45129;BME280;35512;56.312;101.728;2022-09-09T04:04:06;96466.31;;;19.45;35.46
45129;BME280;35512;56.312;101.728;2022-09-09T04:06:36;96476.72;;;19.10;35.89
45129;BME280;35512;56.312;101.728;2022-09-09T04:09:05;96463.19;;;18.75;36.10
45129;BME280;35512;56.312;101.728;2022-09-09T04:11:34;96467.13;;;17.89;36.63
45129;BME280;35512;56.312;101.728;2022-09-09T04:14:03;96465.19;;;17.17;37.27
45129;BME280;35512;56.312;101.728;2022-09-09T04:16:35;96468.31;;;16.63;38.08
45129;BME280;35512;56.312;101.728;2022-09-09T04:19:05;96460.69;;;16.43;38.61
45129;BME280;35512;56.312;101.728;2022-09-09T04:21:36;96448.50;;;16.59;38.92
45129;BME280;35512;56.312;101.728;2022-09-09T04:24:05;96450.13;;;16.49;38.25
45129;BME280;35512;56.312;101.728;2022-09-09T04:26:35;96443.25;;;16.30;38.57
45129;BME280;35512;56.312;101.728;2022-09-09T04:29:04;96443.31;;;16.22;38.46
45129;BME280;35512;56.312;101.728;2022-09-09T04:31:35;96439.09;;;16.11;38.24
45129;BME280;35512;56.312;101.728;2022-09-09T04:34:04;96444.25;;;15.91;38.40
45129;BME280;35512;56.312;101.728;2022-09-09T04:36:33;96440.72;;;15.97;38.86
45129;BME280;35512;56.312;101.728;2022-09-09T04:39:05;96452.19;;;16.30;38.22
45129;BME280;35512;56.312;101.728;2022-09-09T04:41:34;96455.38;;;16.74;38.48
45129;BME280;35512;56.312;101.728;2022-09-09T04:44:04;96458.78;;;17.34;37.71
45129;BME280;35512;56.312;101.728;2022-09-09T04:46:33;96453.06;;;17.56;37.25
45129;BME280;35512;56.312;101.728;2022-09-09T04:49:05;96455.94;;;17.45;37.21
45129;BME280;35512;56.312;101.728;2022-09-09T04:51:36;96453.84;;;17.18;37.52
45129;BME280;35512;56.312;101.728;2022-09-09T04:54:05;96456.03;;;17.34;37.76
45129;BME280;35512;56.312;101.728;2022-09-09T04:56:39;96458.13;;;17.57;37.15
45129;BME280;35512;56.312;101.728;2022-09-09T04:59:11;96456.91;;;17.24;37.10
45129;BME280;35512;56.312;101.728;2022-09-09T05:01:47;96451.72;;;16.95;37.80
45129;BME280;35512;56.312;101.728;2022-09-09T05:04:16;96457.31;;;16.77;37.96
45129;BME280;35512;56.312;101.728;2022-09-09T05:06:45;96448.72;;;16.79;38.31
45129;BME280;35512;56.312;101.728;2022-09-09T05:09:14;96443.78;;;17.12;38.25
45129;BME280;35512;56.312;101.728;2022-09-09T05:11:44;96445.69;;;17.53;37.64
45129;BME280;35512;56.312;101.728;2022-09-09T05:14:26;96453.53;;;18.16;37.36
45129;BME280;35512;56.312;101.728;2022-09-09T05:16:55;96452.69;;;18.98;36.84
45129;BME280;35512;56.312;101.728;2022-09-09T05:19:25;96453.69;;;20.12;36.12
45129;BME280;35512;56.312;101.728;2022-09-09T05:21:54;96461.56;;;20.79;35.46
45129;BME280;35512;56.312;101.728;2022-09-09T05:24:30;96456.44;;;21.73;34.72
45129;BME280;35512;56.312;101.728;2022-09-09T05:27:03;96466.38;;;21.83;33.80
45129;BME280;35512;56.312;101.728;2022-09-09T05:29:34;96457.38;;;21.53;34.23
45129;BME280;35512;56.312;101.728;2022-09-09T05:32:05;96458.06;;;21.41;34.59
45129;BME280;35512;56.312;101.728;2022-09-09T05:34:35;96449.81;;;20.95;33.93
45129;BME280;35512;56.312;101.728;2022-09-09T05:37:06;96461.28;;;20.40;34.51
45129;BME280;35512;56.312;101.728;2022-09-09T05:39:37;96452.06;;;20.14;34.91
45129;BME280;35512;56.312;101.728;2022-09-09T05:42:06;96446.09;;;20.72;35.14
45129;BME280;35512;56.312;101.728;2022-09-09T05:44:37;96458.28;;;20.68;34.10
45129;BME280;35512;56.312;101.728;2022-09-09T05:47:05;96450.50;;;20.13;34.29
45129;BME280;35512;56.312;101.728;2022-09-09T05:49:36;96446.06;;;20.03;34.41
45129;BME280;35512;56.312;101.728;2022-09-09T05:52:05;96457.09;;;19.99;34.69
45129;BME280;35512;56.312;101.728;2022-09-09T05:54:35;96455.91;;;19.80;34.62
45129;BME280;35512;56.312;101.728;2022-09-09T05:57:04;96447.81;;;19.73;35.11
45129;BME280;35512;56.312;101.728;2022-09-09T05:59:33;96453.34;;;19.49;34.88
45129;BME280;35512;56.312;101.728;2022-09-09T06:02:03;96462.88;;;18.97;34.95
45129;BME280;35512;56.312;101.728;2022-09-09T06:04:36;96453.78;;;18.53;35.20
45129;BME280;35512;56.312;101.728;2022-09-09T06:07:05;96452.03;;;18.39;35.72
45129;BME280;35512;56.312;101.728;2022-09-09T06:09:35;96454.03;;;18.35;35.86
45129;BME280;35512;56.312;101.728;2022-09-09T06:12:04;96446.56;;;18.39;36.10
45129;BME280;35512;56.312;101.728;2022-09-09T06:14:35;96464.56;;;18.36;36.24
45129;BME280;35512;56.312;101.728;2022-09-09T06:17:07;96461.94;;;18.29;35.95
45129;BME280;35512;56.312;101.728;2022-09-09T06:19:36;96442.94;;;18.46;35.86
45129;BME280;35512;56.312;101.728;2022-09-09T06:22:07;96444.38;;;19.25;35.76
45129;BME280;35512;56.312;101.728;2022-09-09T06:24:37;96441.50;;;19.96;34.75
45129;BME280;35512;56.312;101.728;2022-09-09T06:27:06;96446.59;;;20.14;34.20
45129;BME280;35512;56.312;101.728;2022-09-09T06:29:36;96459.66;;;20.06;34.77
45129;BME280;35512;56.312;101.728;2022-09-09T06:32:05;96448.44;;;19.17;34.30
45129;BME280;35512;56.312;101.728;2022-09-09T06:34:36;96440.06;;;18.29;35.53
45129;BME280;35512;56.312;101.728;2022-09-09T06:37:05;96441.03;;;17.84;36.01
45129;BME280;35512;56.312;101.728;2022-09-09T06:39:42;96443.38;;;17.51;36.46
45129;BME280;35512;56.312;101.728;2022-09-09T06:42:12;96449.13;;;17.22;36.90
45129;BME280;35512;56.312;101.728;2022-09-09T06:44:49;96428.53;;;17.18;37.25
45129;BME280;35512;56.312;101.728;2022-09-09T06:47:30;96431.66;;;17.16;37.06
45129;BME280;35512;56.312;101.728;2022-09-09T06:49:59;96435.59;;;17.12;37.21
45129;BME280;35512;56.312;101.728;2022-09-09T06:52:31;96443.69;;;17.22;36.73
45129;BME280;35512;56.312;101.728;2022-09-09T06:55:01;96451.25;;;17.04;36.97
45129;BME280;35512;56.312;101.728;2022-09-09T06:57:32;96453.72;;;16.87;37.42
45129;BME280;35512;56.312;101.728;2022-09-09T07:00:10;96460.38;;;16.83;37.41
45129;BME280;35512;56.312;101.728;2022-09-09T07:02:40;96466.34;;;16.67;37.47
45129;BME280;35512;56.312;101.728;2022-09-09T07:05:10;96455.09;;;16.61;37.69
45129;BME280;35512;56.312;101.728;2022-09-09T07:07:42;96461.06;;;16.98;37.81
45129;BME280;35512;56.312;101.728;2022-09-09T07:10:13;96462.47;;;17.13;37.02
45129;BME280;35512;56.312;101.728;2022-09-09T07:12:44;96455.63;;;17.36;37.27
45129;BME280;35512;56.312;101.728;2022-09-09T07:15:14;96465.81;;;17.66;37.19
45129;BME280;35512;56.312;101.728;2022-09-09T07:17:45;96470.81;;;18.06;36.93
45129;BME280;35512;56.312;101.728;2022-09-09T07:20:15;96466.63;;;18.56;36.38
45129;BME280;35512;56.312;101.728;2022-09-09T07:22:44;96464.28;;;18.82;36.02
45129;BME280;35512;56.312;101.728;2022-09-09T07:25:13;96475.50;;;18.87;35.60
45129;BME280;35512;56.312;101.728;2022-09-09T07:27:43;96474.19;;;18.45;36.37
45129;BME280;35512;56.312;101.728;2022-09-09T07:30:13;96473.78;;;18.19;36.64
45129;BME280;35512;56.312;101.728;2022-09-09T07:32:52;96467.41;;;18.29;36.56
45129;BME280;35512;56.312;101.728;2022-09-09T07:35:21;96459.75;;;18.44;36.45
45129;BME280;35512;56.312;101.728;2022-09-09T07:37:50;96458.50;;;18.76;36.37
45129;BME280;35512;56.312;101.728;2022-09-09T07:40:20;96463.44;;;19.08;35.93
45129;BME280;35512;56.312;101.728;2022-09-09T07:42:50;96454.94;;;19.03;36.00
45129;BME280;35512;56.312;101.728;2022-09-09T07:45:19;96462.16;;;18.93;36.18
45129;BME280;35512;56.312;101.728;2022-09-09T07:47:49;96463.13;;;18.79;36.04
45129;BME280;35512;56.312;101.728;2022-09-09T07:50:18;96458.09;;;18.78;36.02
45129;BME280;35512;56.312;101.728;2022-09-09T07:52:47;96459.03;;;18.40;36.04
45129;BME280;35512;56.312;101.728;2022-09-09T07:55:16;96465.16;;;17.93;36.69
45129;BME280;35512;56.312;101.728;2022-09-09T07:57:45;96482.78;;;17.85;37.05
45129;BME280;35512;56.312;101.728;2022-09-09T08:00:15;96486.72;;;17.80;36.96
45129;BME280;35512;56.312;101.728;2022-09-09T08:02:50;96465.66;;;17.46;37.05
45129;BME280;35512;56.312;101.728;2022-09-09T08:05:20;96467.06;;;17.23;37.56
45129;BME280;35512;56.312;101.728;2022-09-09T08:07:50;96467.84;;;17.58;37.38
45129;BME280;35512;56.312;101.728;2022-09-09T08:10:20;96475.50;;;17.71;36.93
45129;BME280;35512;56.312;101.728;2022-09-09T08:12:51;96444.66;;;17.39;36.70
45129;BME280;35512;56.312;101.728;2022-09-09T08:15:40;96484.03;;;17.42;37.02
45129;BME280;35512;56.312;101.728;2022-09-09T08:18:10;96489.00;;;17.13;37.30
45129;BME280;35512;56.312;101.728;2022-09-09T08:20:39;96481.31;;;17.00;37.45
45129;BME280;35512;56.312;101.728;2022-09-09T08:23:08;96486.94;;;17.24;37.07
45129;BME280;35512;56.312;101.728;2022-09-09T08:25:38;96482.94;;;17.32;37.04
45129;BME280;35512;56.312;101.728;2022-09-09T08:28:06;96480.50;;;17.03;37.14
45129;BME280;35512;56.312;101.728;2022-09-09T08:30:36;96494.16;;;16.44;37.63
45129;BME280;35512;56.312;101.728;2022-09-09T08:33:06;96500.13;;;16.20;38.08
45129;BME280;35512;56.312;101.728;2022-09-09T08:35:36;96489.22;;;16.24;38.22
45129;BME280;35512;56.312;101.728;2022-09-09T08:38:05;96491.91;;;16.31;38.25
45129;BME280;35512;56.312;101.728;2022-09-09T08:40:43;96492.41;;;16.08;38.23
45129;BME280;35512;56.312;101.728;2022-09-09T08:43:20;96497.13;;;15.97;38.24
45129;BME280;35512;56.312;101.728;2022-09-09T08:46:02;96500.31;;;15.81;38.54
45129;BME280;35512;56.312;101.728;2022-09-09T08:48:51;96506.16;;;15.65;38.57
45129;BME280;35512;56.312;101.728;2022-09-09T08:51:27;96505.06;;;15.33;38.80
45129;BME280;35512;56.312;101.728;2022-09-09T08:54:02;96509.34;;;15.13;39.17
45129;BME280;35512;56.312;101.728;2022-09-09T08:56:32;96510.53;;;15.01;39.47
45129;BME280;35512;56.312;101.728;2022-09-09T08:59:03;96507.44;;;15.02;39.77
45129;BME280;35512;56.312;101.728;2022-09-09T09:08:00;96517.16;;;15.00;39.87
45129;BME280;35512;56.312;101.728;2022-09-09T09:10:48;96522.94;;;14.80;40.15
45129;BME280;35512;56.312;101.728;2022-09-09T09:13:33;96529.94;;;14.70;39.98
45129;BME280;35512;56.312;101.728;2022-09-09T09:16:34;96525.63;;;14.62;40.15
45129;BME280;35512;56.312;101.728;2022-09-09T09:19:08;96513.59;;;14.52;40.38
45129;BME280;35512;56.312;101.728;2022-09-09T09:21:48;96526.38;;;14.48;40.50
45129;BME280;35512;56.312;101.728;2022-09-09T09:27:32;96528.72;;;14.57;40.73
45129;BME280;35512;56.312;101.728;2022-09-09T09:30:20;96528.38;;;14.80;40.76
45129;BME280;35512;56.312;101.728;2022-09-09T09:33:08;96521.41;;;15.04;40.47
45129;BME280;35512;56.312;101.728;2022-09-09T09:35:41;96525.69;;;14.98;40.61
45129;BME280;35512;56.312;101.728;2022-09-09T09:38:26;96526.84;;;14.68;40.60
45129;BME280;35512;56.312;101.728;2022-09-09T09:41:16;96535.69;;;14.40;41.30
45129;BME280;35512;56.312;101.728;2022-09-09T09:43:53;96533.72;;;14.26;41.21
45129;BME280;35512;56.312;101.728;2022-09-09T09:46:24;96528.28;;;14.30;41.15
45129;BME280;35512;56.312;101.728;2022-09-09T09:49:05;96525.59;;;14.41;41.30
45129;BME280;35512;56.312;101.728;2022-09-09T09:51:35;96521.28;;;14.25;41.42
45129;BME280;35512;56.312;101.728;2022-09-09T09:56:52;96536.69;;;13.92;42.17
45129;BME280;35512;56.312;101.728;2022-09-09T09:59:35;96527.63;;;13.63;42.25
45129;BME280;35512;56.312;101.728;2022-09-09T10:02:24;96535.69;;;13.52;42.63
45129;BME280;35512;56.312;101.728;2022-09-09T10:05:12;96537.94;;;13.39;42.91
45129;BME280;35512;56.312;101.728;2022-09-09T10:07:44;96541.75;;;13.34;42.90
45129;BME280;35512;56.312;101.728;2022-09-09T10:10:20;96538.28;;;13.34;43.37
45129;BME280;35512;56.312;101.728;2022-09-09T10:13:17;96549.88;;;13.31;43.63
45129;BME280;35512;56.312;101.728;2022-09-09T10:18:42;96552.81;;;13.11;43.67
45129;BME280;35512;56.312;101.728;2022-09-09T10:24:10;96553.16;;;13.02;44.23
45129;BME280;35512;56.312;101.728;2022-09-09T10:32:50;96557.28;;;12.89;44.18
45129;BME280;35512;56.312;101.728;2022-09-09T10:35:40;96575.06;;;12.83;44.38
45129;BME280;35512;56.312;101.728;2022-09-09T10:38:18;96568.44;;;12.80;44.49
45129;BME280;35512;56.312;101.728;2022-09-09T10:41:06;96568.03;;;12.78;44.99
45129;BME280;35512;56.312;101.728;2022-09-09T10:53:00;96576.25;;;12.48;45.67
45129;BME280;35512;56.312;101.728;2022-09-09T10:55:24;96572.22;;;12.34;45.87
45129;BME280;35512;56.312;101.728;2022-09-09T10:57:59;96574.06;;;12.27;45.79
45129;BME280;35512;56.312;101.728;2022-09-09T11:00:39;96574.75;;;12.16;45.96
45129;BME280;35512;56.312;101.728;2022-09-09T11:03:23;96578.13;;;12.10;46.25
45129;BME280;35512;56.312;101.728;2022-09-09T11:05:59;96571.09;;;12.05;46.52
45129;BME280;35512;56.312;101.728;2022-09-09T11:08:32;96569.16;;;12.02;46.50
45129;BME280;35512;56.312;101.728;2022-09-09T11:11:34;96582.66;;;11.98;46.72
45129;BME280;35512;56.312;101.728;2022-09-09T11:16:51;96579.03;;;11.91;47.04
45129;BME280;35512;56.312;101.728;2022-09-09T11:21:57;96592.25;;;11.69;47.25
45129;BME280;35512;56.312;101.728;2022-09-09T11:24:41;96601.25;;;11.50;47.46
45129;BME280;35512;56.312;101.728;2022-09-09T11:27:21;96595.22;;;11.33;47.40
45129;BME280;35512;56.312;101.728;2022-09-09T11:36:01;96593.75;;;10.90;47.90
45129;BME280;35512;56.312;101.728;2022-09-09T11:41:39;96605.75;;;10.69;48.15
45129;BME280;35512;56.312;101.728;2022-09-09T11:44:16;96603.25;;;10.60;48.47
45129;BME280;35512;56.312;101.728;2022-09-09T11:46:49;96615.63;;;10.61;48.32
45129;BME280;35512;56.312;101.728;2022-09-09T11:49:40;96614.38;;;10.55;48.67
45129;BME280;35512;56.312;101.728;2022-09-09T11:52:46;96615.34;;;10.47;48.78
45129;BME280;35512;56.312;101.728;2022-09-09T11:58:00;96617.75;;;10.32;49.26
45129;BME280;35512;56.312;101.728;2022-09-09T12:00:35;96624.50;;;10.23;49.39
45129;BME280;35512;56.312;101.728;2022-09-09T12:03:08;96628.59;;;10.17;49.59
45129;BME280;35512;56.312;101.728;2022-09-09T12:05:55;96623.44;;;10.08;49.52
45129;BME280;35512;56.312;101.728;2022-09-09T12:08:27;96634.50;;;10.03;49.86
45129;BME280;35512;56.312;101.728;2022-09-09T12:10:58;96629.00;;;9.99;49.76
45129;BME280;35512;56.312;101.728;2022-09-09T12:13:31;96625.91;;;9.97;50.28
45129;BME280;35512;56.312;101.728;2022-09-09T12:16:00;96628.16;;;9.95;50.48
45129;BME280;35512;56.312;101.728;2022-09-09T12:18:38;96638.59;;;9.96;50.32
45129;BME280;35512;56.312;101.728;2022-09-09T12:24:10;96642.44;;;9.95;50.56
45129;BME280;35512;56.312;101.728;2022-09-09T12:27:00;96645.91;;;9.96;50.42
45129;BME280;35512;56.312;101.728;2022-09-09T12:29:54;96652.53;;;9.98;50.64
45129;BME280;35512;56.312;101.728;2022-09-09T12:32:26;96651.38;;;10.00;50.52
45129;BME280;35512;56.312;101.728;2022-09-09T12:35:04;96643.66;;;9.98;50.70
45129;BME280;35512;56.312;101.728;2022-09-09T12:37:50;96643.84;;;9.89;50.68
45129;BME280;35512;56.312;101.728;2022-09-09T12:40:24;96644.47;;;9.82;50.78
45129;BME280;35512;56.312;101.728;2022-09-09T12:42:54;96643.09;;;9.73;50.88
45129;BME280;35512;56.312;101.728;2022-09-09T12:45:31;96645.44;;;9.58;51.11
45129;BME280;35512;56.312;101.728;2022-09-09T12:48:04;96647.13;;;9.47;51.68
45129;BME280;35512;56.312;101.728;2022-09-09T12:50:42;96641.81;;;9.35;51.82
45129;BME280;35512;56.312;101.728;2022-09-09T12:56:05;96645.56;;;9.14;52.34
45129;BME280;35512;56.312;101.728;2022-09-09T12:58:38;96650.44;;;9.08;52.24
45129;BME280;35512;56.312;101.728;2022-09-09T13:01:22;96652.59;;;9.03;52.76
45129;BME280;35512;56.312;101.728;2022-09-09T13:03:52;96654.44;;;8.99;52.52
45129;BME280;35512;56.312;101.728;2022-09-09T13:06:27;96658.50;;;8.92;52.81
45129;BME280;35512;56.312;101.728;2022-09-09T13:09:01;96652.91;;;8.85;53.11
45129;BME280;35512;56.312;101.728;2022-09-09T13:11:40;96661.69;;;8.82;52.96
45129;BME280;35512;56.312;101.728;2022-09-09T13:14:27;96661.00;;;8.85;53.10
45129;BME280;35512;56.312;101.728;2022-09-09T13:17:02;96659.88;;;8.86;53.06
45129;BME280;35512;56.312;101.728;2022-09-09T13:19:38;96667.25;;;8.89;53.43
45129;BME280;35512;56.312;101.728;2022-09-09T13:22:14;96664.66;;;8.93;53.96
45129;BME280;35512;56.312;101.728;2022-09-09T13:24:43;96667.78;;;8.95;53.86
45129;BME280;35512;56.312;101.728;2022-09-09T13:27:37;96672.41;;;8.94;53.65
45129;BME280;35512;56.312;101.728;2022-09-09T13:30:27;96670.91;;;8.97;54.07
45129;BME280;35512;56.312;101.728;2022-09-09T13:35:52;96673.59;;;8.97;54.16
45129;BME280;35512;56.312;101.728;2022-09-09T13:38:23;96670.47;;;8.95;54.18
45129;BME280;35512;56.312;101.728;2022-09-09T13:43:28;96678.03;;;8.89;54.50
45129;BME280;35512;56.312;101.728;2022-09-09T13:46:03;96678.81;;;8.90;54.64
45129;BME280;35512;56.312;101.728;2022-09-09T13:48:33;96676.81;;;8.87;54.39
45129;BME280;35512;56.312;101.728;2022-09-09T13:51:03;96678.28;;;8.84;54.47
45129;BME280;35512;56.312;101.728;2022-09-09T13:53:36;96679.41;;;8.83;54.82
45129;BME280;35512;56.312;101.728;2022-09-09T13:56:05;96679.41;;;8.83;54.89
45129;BME280;35512;56.312;101.728;2022-09-09T13:58:34;96677.06;;;8.82;54.64
45129;BME280;35512;56.312;101.728;2022-09-09T14:01:03;96679.50;;;8.87;55.12
45129;BME280;35512;56.312;101.728;2022-09-09T14:03:32;96691.16;;;8.91;54.93
45129;BME280;35512;56.312;101.728;2022-09-09T14:06:02;96682.63;;;8.89;54.85
45129;BME280;35512;56.312;101.728;2022-09-09T14:08:31;96688.56;;;8.94;54.88
45129;BME280;35512;56.312;101.728;2022-09-09T14:11:06;96692.03;;;8.95;54.94
45129;BME280;35512;56.312;101.728;2022-09-09T14:13:36;96699.34;;;8.94;55.11
45129;BME280;35512;56.312;101.728;2022-09-09T14:16:06;96699.66;;;8.93;54.76
45129;BME280;35512;56.312;101.728;2022-09-09T14:18:35;96703.06;;;8.90;55.03
45129;BME280;35512;56.312;101.728;2022-09-09T14:21:04;96697.81;;;8.81;54.98
45129;BME280;35512;56.312;101.728;2022-09-09T14:23:33;96698.31;;;8.71;55.05
45129;BME280;35512;56.312;101.728;2022-09-09T14:26:02;96703.94;;;8.66;55.35
45129;BME280;35512;56.312;101.728;2022-09-09T14:28:30;96708.34;;;8.58;55.45
45129;BME280;35512;56.312;101.728;2022-09-09T14:31:19;96714.66;;;8.50;55.46
45129;BME280;35512;56.312;101.728;2022-09-09T14:33:49;96706.59;;;8.37;55.71
45129;BME280;35512;56.312;101.728;2022-09-09T14:36:19;96718.34;;;8.33;55.57
45129;BME280;35512;56.312;101.728;2022-09-09T14:38:48;96714.69;;;8.25;55.80
45129;BME280;35512;56.312;101.728;2022-09-09T14:41:19;96715.84;;;8.11;55.77
45129;BME280;35512;56.312;101.728;2022-09-09T14:43:49;96723.34;;;8.06;56.24
45129;BME280;35512;56.312;101.728;2022-09-09T14:46:20;96718.00;;;7.93;56.14
45129;BME280;35512;56.312;101.728;2022-09-09T14:48:50;96718.84;;;7.85;56.11
45129;BME280;35512;56.312;101.728;2022-09-09T14:51:25;96724.91;;;7.82;56.16
45129;BME280;35512;56.312;101.728;2022-09-09T14:53:59;96727.94;;;7.81;56.72
45129;BME280;35512;56.312;101.728;2022-09-09T14:56:31;96733.53;;;7.75;56.59
45129;BME280;35512;56.312;101.728;2022-09-09T14:59:03;96737.81;;;7.76;56.95